createdAt,value
2022-12-20T00:01:30.599Z,-1.89
2022-12-20T00:04:00.162Z,-1.85
2022-12-20T00:06:27.191Z,-1.85
2022-12-20T00:08:59.200Z,-1.82
2022-12-20T00:11:26.607Z,-1.79
2022-12-20T00:13:53.269Z,-1.78
2022-12-20T00:16:22.291Z,-1.78
2022-12-20T00:18:53.076Z,-1.69
2022-12-20T00:21:20.307Z,-1.66
2022-12-20T00:23:46.805Z,-1.69
2022-12-20T00:26:16.482Z,-1.64
2022-12-20T00:28:45.519Z,-1.59
2022-12-20T00:31:14.657Z,-1.59
2022-12-20T00:33:41.727Z,-1.53
2022-12-20T00:36:08.496Z,-1.48
2022-12-20T00:38:35.882Z,-1.46
2022-12-20T00:41:03.854Z,-1.43
2022-12-20T00:43:32.016Z,-1.40
2022-12-20T00:45:59.109Z,-1.33
2022-12-20T00:48:26.716Z,-1.26
2022-12-20T00:50:53.214Z,-1.24
2022-12-20T00:53:26.021Z,-1.26
2022-12-20T00:55:52.964Z,-1.20
2022-12-20T00:58:19.602Z,-1.13
2022-12-20T01:00:52.054Z,-1.10
2022-12-20T01:03:22.561Z,-1.10
2022-12-20T01:05:56.463Z,-1.06
2022-12-20T01:08:24.950Z,-1.01
2022-12-20T01:11:06.346Z,-1.02
2022-12-20T01:13:34.809Z,-0.97
2022-12-20T01:16:16.543Z,-0.96
2022-12-20T01:18:43.631Z,-0.92
2022-12-20T01:21:12.587Z,-0.89
2022-12-20T01:23:40.484Z,-0.89
2022-12-20T01:26:09.722Z,-0.86
2022-12-20T01:28:38.182Z,-0.77
2022-12-20T01:31:09.804Z,-0.79
2022-12-20T01:33:36.884Z,-0.77
2022-12-20T01:36:07.166Z,-0.78
2022-12-20T01:38:34.421Z,-0.76
2022-12-20T01:41:01.967Z,-0.68
2022-12-20T01:43:49.013Z,-0.69
2022-12-20T01:46:17.327Z,-0.64
2022-12-20T01:48:49.777Z,-0.60
2022-12-20T01:51:17.780Z,-0.50
2022-12-20T01:53:44.411Z,-0.59
2022-12-20T01:56:11.351Z,-0.51
2022-12-20T01:58:39.554Z,-0.52
2022-12-20T02:01:06.544Z,-0.48
2022-12-20T02:03:33.713Z,-0.48
2022-12-20T02:06:15.867Z,-0.51
2022-12-20T02:08:43.534Z,-0.43
2022-12-20T02:11:29.379Z,-0.42
2022-12-20T02:14:21.925Z,-0.35
2022-12-20T02:17:07.100Z,-0.34
2022-12-20T02:19:52.045Z,-0.37
2022-12-20T02:22:56.088Z,-0.28
2022-12-20T02:25:46.037Z,-0.22
2022-12-20T02:28:18.270Z,-0.29
2022-12-20T02:30:49.692Z,-0.23
2022-12-20T02:33:17.347Z,-0.25
2022-12-20T02:35:43.969Z,-0.15
2022-12-20T02:38:30.900Z,-0.15
2022-12-20T02:41:19.178Z,-0.12
2022-12-20T02:44:09.349Z,-0.10
2022-12-20T02:46:37.136Z,-0.07
2022-12-20T02:49:11.586Z,-0.05
2022-12-20T02:51:39.974Z,-0.13
2022-12-20T02:54:06.605Z,-0.02
2022-12-20T02:56:43.936Z,-0.04
2022-12-20T02:59:16.977Z,-0.02
2022-12-20T03:01:50.495Z,0.04
2022-12-20T03:04:19.077Z,0.07
2022-12-20T03:07:06.957Z,0.10
2022-12-20T03:09:36.802Z,0.04
2022-12-20T03:12:03.950Z,0.13
2022-12-20T03:14:30.642Z,0.10
2022-12-20T03:16:57.433Z,0.11
2022-12-20T03:19:24.510Z,0.17
2022-12-20T03:21:51.810Z,0.15
2022-12-20T03:24:18.693Z,0.14
2022-12-20T03:26:45.341Z,0.08
2022-12-20T03:29:11.909Z,0.19
2022-12-20T03:31:39.015Z,0.20
2022-12-20T03:34:06.596Z,0.19
2022-12-20T03:36:33.593Z,0.21
2022-12-20T03:39:00.390Z,0.25
2022-12-20T03:41:27.043Z,0.28
2022-12-20T03:43:53.529Z,0.26
2022-12-20T03:46:20.384Z,0.27
2022-12-20T03:48:46.928Z,0.25
2022-12-20T03:51:13.462Z,0.26
2022-12-20T03:53:39.994Z,0.31
2022-12-20T03:56:06.666Z,0.45
2022-12-20T03:58:33.207Z,0.36
2022-12-20T04:00:59.726Z,0.38
2022-12-20T04:03:26.361Z,0.39
2022-12-20T04:05:52.961Z,0.40
2022-12-20T04:08:19.475Z,0.49
2022-12-20T04:11:04.633Z,0.50
2022-12-20T04:13:31.133Z,0.39
2022-12-20T04:16:00.742Z,0.49
2022-12-20T04:18:27.805Z,0.51
2022-12-20T04:20:55.029Z,0.54
2022-12-20T04:23:21.803Z,0.55
2022-12-20T04:25:48.361Z,0.55
2022-12-20T04:28:14.841Z,0.57
2022-12-20T04:30:41.357Z,0.59
2022-12-20T04:33:07.953Z,0.60
2022-12-20T04:35:34.493Z,0.61
2022-12-20T04:38:01.192Z,0.59
2022-12-20T04:40:27.777Z,0.59
2022-12-20T04:42:54.293Z,0.65
2022-12-20T04:45:20.894Z,0.62
2022-12-20T04:47:47.419Z,0.64
2022-12-20T04:50:13.977Z,0.56
2022-12-20T04:52:59.128Z,0.58
2022-12-20T04:55:25.671Z,0.59
2022-12-20T04:57:52.296Z,0.58
2022-12-20T05:00:19.326Z,0.59
2022-12-20T05:02:45.981Z,0.58
2022-12-20T05:05:12.705Z,0.57
2022-12-20T05:07:39.246Z,0.63
2022-12-20T05:10:06.440Z,0.59
2022-12-20T05:12:33.083Z,0.65
2022-12-20T05:14:59.640Z,0.62
2022-12-20T05:17:26.193Z,0.63
2022-12-20T05:19:52.653Z,0.71
2022-12-20T05:22:38.059Z,0.63
2022-12-20T05:25:23.562Z,0.77
2022-12-20T05:27:50.360Z,0.77
2022-12-20T05:30:16.987Z,0.80
2022-12-20T05:32:43.489Z,0.81
2022-12-20T05:35:09.999Z,0.73
2022-12-20T05:37:37.064Z,0.74
2022-12-20T05:40:04.920Z,0.74
2022-12-20T05:42:31.600Z,0.72
2022-12-20T05:44:58.224Z,0.77
2022-12-20T05:47:24.998Z,0.77
2022-12-20T05:49:51.623Z,0.77
2022-12-20T05:52:18.137Z,0.80
2022-12-20T05:54:44.604Z,0.81
2022-12-20T05:57:11.853Z,0.82
2022-12-20T05:59:38.544Z,0.82
2022-12-20T06:02:05.209Z,0.82
2022-12-20T06:04:32.878Z,0.81
2022-12-20T06:07:02.284Z,0.84
2022-12-20T06:09:30.166Z,0.84
2022-12-20T06:11:56.977Z,0.87
2022-12-20T06:14:23.655Z,0.90
2022-12-20T06:16:50.242Z,0.84
2022-12-20T06:19:21.458Z,0.95
2022-12-20T06:21:48.432Z,0.85
2022-12-20T06:24:14.928Z,0.92
2022-12-20T06:26:41.707Z,0.90
2022-12-20T06:29:10.255Z,0.94
2022-12-20T06:31:36.836Z,0.85
2022-12-20T06:34:03.548Z,0.90
2022-12-20T06:36:30.058Z,0.92
2022-12-20T06:38:56.624Z,0.94
2022-12-20T06:41:23.268Z,0.97
2022-12-20T06:43:49.971Z,0.93
2022-12-20T06:46:16.828Z,0.93
2022-12-20T06:48:43.464Z,0.96
2022-12-20T06:51:11.230Z,0.98
2022-12-20T06:53:37.812Z,0.99
2022-12-20T06:56:04.623Z,1.00
2022-12-20T06:58:31.327Z,1.02
2022-12-20T07:00:57.969Z,1.00
2022-12-20T07:03:24.674Z,0.99
2022-12-20T07:05:53.426Z,1.03
2022-12-20T07:08:21.156Z,1.06
2022-12-20T07:10:48.160Z,1.07
2022-12-20T07:13:14.685Z,1.04
2022-12-20T07:15:41.378Z,1.06
2022-12-20T07:18:08.011Z,1.07
2022-12-20T07:20:34.724Z,1.05
2022-12-20T07:23:01.358Z,1.13
2022-12-20T07:25:28.604Z,1.16
2022-12-20T07:27:55.185Z,1.15
2022-12-20T07:30:21.832Z,1.25
2022-12-20T07:32:48.463Z,1.25
2022-12-20T07:35:15.535Z,1.23
2022-12-20T07:37:42.274Z,1.27
2022-12-20T07:40:10.833Z,1.25
2022-12-20T07:42:41.461Z,1.26
2022-12-20T07:45:13.095Z,1.32
2022-12-20T07:47:39.745Z,1.54
2022-12-20T07:50:07.023Z,1.44
2022-12-20T07:52:35.266Z,1.43
2022-12-20T07:55:04.201Z,1.37
2022-12-20T07:57:42.725Z,1.38
2022-12-20T08:00:11.272Z,1.40
2022-12-20T08:02:45.001Z,1.43
2022-12-20T08:05:12.587Z,1.50
2022-12-20T08:07:41.378Z,1.46
2022-12-20T08:10:10.994Z,1.48
2022-12-20T08:12:38.382Z,1.56
2022-12-20T08:15:05.378Z,1.54
2022-12-20T08:17:32.032Z,1.58
2022-12-20T08:20:00.516Z,1.63
2022-12-20T08:22:27.041Z,1.58
2022-12-20T08:24:53.643Z,1.65
2022-12-20T08:27:20.112Z,1.71
2022-12-20T08:29:46.730Z,1.74
2022-12-20T08:32:14.297Z,1.81
2022-12-20T08:34:40.896Z,1.82
2022-12-20T08:37:14.326Z,1.85
2022-12-20T08:39:41.422Z,1.89
2022-12-20T08:42:07.967Z,1.97
2022-12-20T08:44:34.469Z,2.07
2022-12-20T08:47:01.091Z,1.98
2022-12-20T08:49:27.698Z,1.98
2022-12-20T08:51:54.257Z,2.08
2022-12-20T08:54:20.846Z,2.04
2022-12-20T08:56:47.772Z,2.11
2022-12-20T08:59:14.414Z,2.19
2022-12-20T09:01:41.262Z,2.25
2022-12-20T09:04:10.797Z,2.31
2022-12-20T09:06:37.504Z,2.36
2022-12-20T09:09:05.287Z,2.54
2022-12-20T09:11:31.879Z,2.74
2022-12-20T09:13:59.547Z,2.88
2022-12-20T09:16:29.406Z,3.05
2022-12-20T09:19:04.552Z,3.15
2022-12-20T09:21:32.956Z,3.49
2022-12-20T09:23:59.526Z,3.31
2022-12-20T09:26:26.456Z,3.28
2022-12-20T09:28:54.034Z,3.43
2022-12-20T09:31:24.020Z,3.44
2022-12-20T09:33:54.697Z,3.30
2022-12-20T09:36:22.898Z,3.40
2022-12-20T09:38:49.819Z,3.31
2022-12-20T09:41:22.855Z,3.44
2022-12-20T09:43:49.977Z,3.30
2022-12-20T09:46:17.046Z,3.35
2022-12-20T09:48:45.101Z,3.46
2022-12-20T09:51:36.178Z,3.43
2022-12-20T09:54:24.504Z,3.42
2022-12-20T09:57:06.880Z,3.45
2022-12-20T09:59:45.959Z,3.60
2022-12-20T10:05:41.080Z,3.74
2022-12-20T10:08:37.294Z,3.76
2022-12-20T10:11:09.662Z,3.80
2022-12-20T10:13:46.763Z,3.76
2022-12-20T10:16:29.586Z,3.59
2022-12-20T10:19:40.296Z,3.52
2022-12-20T10:22:35.816Z,3.55
2022-12-20T10:25:16.865Z,3.46
2022-12-20T10:27:46.248Z,3.33
2022-12-20T10:30:18.498Z,3.25
2022-12-20T10:32:48.117Z,3.15
2022-12-20T10:35:14.549Z,3.22
2022-12-20T10:38:07.941Z,3.24
2022-12-20T10:41:18.624Z,3.26
2022-12-20T10:43:27.034Z,3.20
2022-12-20T10:46:06.816Z,3.18
2022-12-20T10:48:37.373Z,3.29
2022-12-20T10:51:03.885Z,3.19
2022-12-20T10:53:32.042Z,3.17
2022-12-20T10:56:10.897Z,3.16
2022-12-20T10:58:38.625Z,3.25
2022-12-20T11:01:19.250Z,3.29
2022-12-20T11:03:55.769Z,3.26
2022-12-20T11:06:25.896Z,3.23
2022-12-20T11:08:58.960Z,3.31
2022-12-20T11:11:27.565Z,3.25
2022-12-20T11:13:54.198Z,3.25
2022-12-20T11:16:36.802Z,3.26
2022-12-20T11:19:24.828Z,3.24
2022-12-20T11:22:17.796Z,3.32
2022-12-20T11:25:05.789Z,3.20
2022-12-20T11:27:44.050Z,3.35
2022-12-20T11:30:19.718Z,3.28
2022-12-20T11:33:03.039Z,3.18
2022-12-20T11:35:55.824Z,3.24
2022-12-20T11:38:42.374Z,3.16
2022-12-20T11:41:27.328Z,3.14
2022-12-20T11:44:32.188Z,3.16
2022-12-20T11:47:04.627Z,3.23
2022-12-20T11:49:43.335Z,3.26
2022-12-20T11:52:48.644Z,3.23
2022-12-20T11:55:22.290Z,3.34
2022-12-20T11:58:18.629Z,3.29
2022-12-20T12:00:52.315Z,3.37
2022-12-20T12:03:35.776Z,3.39
2022-12-20T12:06:48.834Z,3.43
2022-12-20T12:09:18.181Z,3.49
2022-12-20T12:12:09.143Z,3.47
2022-12-20T12:15:02.551Z,3.57
2022-12-20T12:17:40.171Z,3.60
2022-12-20T12:20:28.630Z,3.65
2022-12-20T12:23:01.563Z,3.74
2022-12-20T12:25:28.061Z,3.74
2022-12-20T12:27:54.799Z,3.75
2022-12-20T12:30:22.984Z,3.70
2022-12-20T12:33:02.417Z,3.64
2022-12-20T12:35:49.619Z,3.58
2022-12-20T12:39:00.049Z,3.57
2022-12-20T12:41:41.042Z,3.50
2022-12-20T12:44:35.434Z,3.53
2022-12-20T12:47:06.762Z,3.51
2022-12-20T12:49:34.131Z,3.42
2022-12-20T12:52:03.037Z,3.36
2022-12-20T12:54:31.050Z,3.35
2022-12-20T12:57:11.625Z,3.40
2022-12-20T12:59:38.606Z,3.38
2022-12-20T13:02:14.670Z,3.37
2022-12-20T13:05:00.578Z,3.43
2022-12-20T13:07:40.838Z,3.45
2022-12-20T13:10:10.329Z,3.39
2022-12-20T13:12:37.075Z,3.30
2022-12-20T13:15:22.014Z,3.32
2022-12-20T13:18:21.345Z,3.22
2022-12-20T13:21:39.364Z,3.22
2022-12-20T13:24:41.070Z,3.21
2022-12-20T13:27:40.802Z,3.21
2022-12-20T13:30:07.441Z,3.23
2022-12-20T13:32:49.094Z,3.14
2022-12-20T13:35:24.938Z,3.10
2022-12-20T13:37:56.119Z,3.15
2022-12-20T13:40:41.113Z,3.18
2022-12-20T13:43:21.926Z,3.10
2022-12-20T13:45:53.157Z,3.09
2022-12-20T13:48:26.532Z,3.01
2022-12-20T13:50:57.611Z,3.16
2022-12-20T13:53:29.844Z,3.16
2022-12-20T13:55:56.393Z,3.14
2022-12-20T13:58:26.864Z,3.03
2022-12-20T14:00:55.029Z,3.11
2022-12-20T14:03:30.763Z,3.16
2022-12-20T14:06:11.981Z,3.11
2022-12-20T14:08:43.436Z,3.11
2022-12-20T14:11:20.434Z,3.17
2022-12-20T14:14:02.195Z,3.23
2022-12-20T14:16:31.330Z,3.21
2022-12-20T14:18:57.874Z,3.13
2022-12-20T14:21:25.721Z,3.16
2022-12-20T14:23:55.503Z,3.12
2022-12-20T14:26:28.798Z,3.17
2022-12-20T14:29:02.705Z,3.14
2022-12-20T14:31:41.879Z,3.10
2022-12-20T14:34:11.426Z,3.23
2022-12-20T14:36:39.283Z,3.17
2022-12-20T14:39:29.617Z,3.29
2022-12-20T14:41:58.072Z,3.22
2022-12-20T14:44:27.311Z,3.17
2022-12-20T14:47:01.985Z,3.15
2022-12-20T14:49:34.390Z,3.15
2022-12-20T14:52:14.798Z,3.18
2022-12-20T14:55:13.203Z,3.16
2022-12-20T14:57:46.085Z,3.18
2022-12-20T15:00:17.460Z,3.11
2022-12-20T15:02:51.271Z,3.14
2022-12-20T15:05:36.463Z,3.13
2022-12-20T15:08:39.088Z,3.05
2022-12-20T15:11:08.630Z,3.09
2022-12-20T15:13:42.157Z,3.08
2022-12-20T15:16:20.285Z,3.06
2022-12-20T15:18:48.166Z,3.04
2022-12-20T15:21:24.399Z,2.95
2022-12-20T15:23:52.749Z,2.93
2022-12-20T15:26:22.310Z,2.99
2022-12-20T15:28:49.067Z,2.95
2022-12-20T15:31:18.322Z,2.89
2022-12-20T15:33:46.141Z,2.91
2022-12-20T15:36:18.467Z,2.90
2022-12-20T15:41:35.064Z,2.94
2022-12-20T15:44:06.438Z,2.91
2022-12-20T15:46:33.486Z,2.90
2022-12-20T15:49:00.159Z,2.97
2022-12-20T15:51:33.894Z,2.98
2022-12-20T15:54:02.291Z,2.93
2022-12-20T15:56:29.161Z,2.97
2022-12-20T15:58:55.901Z,2.97
2022-12-20T16:01:40.309Z,2.98
2022-12-20T16:04:08.473Z,2.91
2022-12-20T16:06:35.219Z,2.95
2022-12-20T16:09:01.685Z,2.98
2022-12-20T16:11:30.721Z,2.94
2022-12-20T16:13:59.381Z,2.84
2022-12-20T16:16:36.919Z,2.86
2022-12-20T16:19:06.551Z,2.88
2022-12-20T16:21:36.151Z,2.83
2022-12-20T16:24:03.412Z,2.82
2022-12-20T16:26:30.037Z,2.82
2022-12-20T16:28:57.111Z,2.83
2022-12-20T16:31:28.617Z,2.85
2022-12-20T16:33:56.231Z,2.81
2022-12-20T16:36:23.751Z,2.85
2022-12-20T16:38:51.029Z,2.83
2022-12-20T16:41:20.252Z,2.80
2022-12-20T16:43:49.047Z,2.82
2022-12-20T16:46:18.588Z,2.82
2022-12-20T16:48:45.369Z,2.86
2022-12-20T16:51:21.724Z,2.81
2022-12-20T16:54:18.099Z,2.85
2022-12-20T16:56:35.705Z,2.79
2022-12-20T16:59:19.224Z,2.79
2022-12-20T17:01:48.095Z,2.86
2022-12-20T17:04:17.512Z,2.79
2022-12-20T17:06:44.837Z,2.76
2022-12-20T17:11:52.192Z,2.75
2022-12-20T17:14:20.113Z,2.79
2022-12-20T17:16:46.816Z,2.80
2022-12-20T17:19:13.956Z,2.71
2022-12-20T17:24:27.573Z,2.76
2022-12-20T17:26:54.162Z,2.76
2022-12-20T17:29:20.970Z,2.68
2022-12-20T17:31:48.586Z,2.74
2022-12-20T17:34:18.892Z,2.69
2022-12-20T17:36:46.624Z,2.68
2022-12-20T17:39:13.720Z,2.70
2022-12-20T17:41:42.598Z,2.72
2022-12-20T17:44:19.504Z,2.69
2022-12-20T17:46:46.732Z,2.82
2022-12-20T17:49:13.649Z,2.73
2022-12-20T17:51:40.271Z,2.67
2022-12-20T17:54:08.934Z,2.72
2022-12-20T17:56:36.903Z,2.73
2022-12-20T17:59:07.261Z,2.70
2022-12-20T18:01:35.920Z,2.77
2022-12-20T18:04:06.780Z,2.76
2022-12-20T18:06:35.258Z,2.75
2022-12-20T18:09:01.765Z,2.79
2022-12-20T18:11:29.156Z,2.78
2022-12-20T18:13:57.822Z,2.82
2022-12-20T18:16:27.624Z,2.80
2022-12-20T18:18:55.457Z,2.79
2022-12-20T18:21:24.172Z,2.83
2022-12-20T18:23:51.628Z,2.78
2022-12-20T18:26:21.465Z,2.83
2022-12-20T18:28:49.848Z,2.84
2022-12-20T18:31:19.670Z,2.80
2022-12-20T18:33:50.097Z,2.75
2022-12-20T18:36:23.952Z,2.71
2022-12-20T18:38:51.693Z,2.75
2022-12-20T18:41:24.109Z,2.81
2022-12-20T18:43:52.219Z,2.82
2022-12-20T18:46:21.524Z,2.81
2022-12-20T18:48:50.856Z,2.68
2022-12-20T18:51:20.302Z,2.74
2022-12-20T18:53:48.515Z,2.75
2022-12-20T18:56:29.235Z,2.72
2022-12-20T18:58:56.434Z,2.83
2022-12-20T19:01:25.905Z,2.86
2022-12-20T19:03:53.227Z,2.73
2022-12-20T19:06:20.294Z,2.76
2022-12-20T19:08:47.548Z,2.82
2022-12-20T19:11:17.568Z,2.86
2022-12-20T19:13:44.923Z,2.89
2022-12-20T19:16:20.698Z,3.05
2022-12-20T19:18:48.270Z,3.02
2022-12-20T19:21:17.968Z,2.88
2022-12-20T19:23:46.841Z,2.82
2022-12-20T19:26:14.624Z,2.87
2022-12-20T19:28:42.597Z,2.85
2022-12-20T19:31:21.956Z,2.84
2022-12-20T19:33:50.012Z,2.87
2022-12-20T19:36:25.331Z,2.83
2022-12-20T19:38:58.163Z,2.80
2022-12-20T19:41:27.859Z,2.79
2022-12-20T19:43:54.555Z,2.80
2022-12-20T19:46:28.343Z,2.86
2022-12-20T19:48:57.079Z,2.84
2022-12-20T19:51:24.079Z,2.80
2022-12-20T19:53:51.881Z,2.85
2022-12-20T19:56:22.850Z,2.81
2022-12-20T19:58:49.631Z,2.91
2022-12-20T20:01:17.963Z,2.84
2022-12-20T20:03:45.579Z,2.93
2022-12-20T20:06:13.109Z,3.02
2022-12-20T20:08:40.413Z,2.92
2022-12-20T20:11:10.042Z,2.91
2022-12-20T20:13:37.853Z,2.83
2022-12-20T20:16:05.911Z,2.87
2022-12-20T20:18:37.242Z,2.87
2022-12-20T20:21:19.105Z,2.81
2022-12-20T20:23:45.728Z,2.85
2022-12-20T20:26:19.005Z,2.78
2022-12-20T20:28:45.800Z,2.82
2022-12-20T20:31:14.207Z,2.83
2022-12-20T20:33:41.674Z,2.88
2022-12-20T20:36:08.727Z,2.80
2022-12-20T20:38:35.511Z,2.86
2022-12-20T20:41:02.352Z,2.81
2022-12-20T20:43:29.979Z,2.89
2022-12-20T20:45:56.993Z,2.86
2022-12-20T20:48:23.795Z,2.85
2022-12-20T20:50:50.645Z,2.81
2022-12-20T20:53:17.365Z,2.77
2022-12-20T20:55:43.841Z,2.76
2022-12-20T20:58:10.465Z,2.69
2022-12-20T21:00:37.317Z,2.78
2022-12-20T21:03:04.470Z,2.87
2022-12-20T21:08:19.399Z,2.75
2022-12-20T21:10:46.061Z,2.80
2022-12-20T21:13:12.689Z,2.83
2022-12-20T21:15:40.941Z,2.88
2022-12-20T21:18:07.572Z,2.78
2022-12-20T21:20:34.222Z,2.79
2022-12-20T21:23:01.618Z,2.80
2022-12-20T21:25:29.885Z,2.76
2022-12-20T21:27:56.988Z,2.80
2022-12-20T21:30:24.392Z,2.85
2022-12-20T21:32:51.399Z,2.78
2022-12-20T21:35:17.905Z,2.69
2022-12-20T21:37:44.836Z,2.77
2022-12-20T21:40:11.797Z,2.82
2022-12-20T21:42:38.310Z,2.84
2022-12-20T21:45:05.341Z,2.83
2022-12-20T21:47:31.854Z,2.81
2022-12-20T21:49:58.388Z,2.82
2022-12-20T21:52:26.296Z,2.80
2022-12-20T21:54:52.844Z,2.79
2022-12-20T21:57:19.497Z,2.81
2022-12-20T21:59:46.065Z,2.85
2022-12-20T22:02:12.835Z,2.76
2022-12-20T22:04:39.589Z,2.80
2022-12-20T22:07:06.258Z,2.76
2022-12-20T22:09:32.757Z,2.74
2022-12-20T22:11:59.216Z,2.77
2022-12-20T22:14:26.027Z,2.74
2022-12-20T22:16:54.789Z,2.70
2022-12-20T22:19:21.530Z,2.70
2022-12-20T22:21:53.726Z,2.73
2022-12-20T22:24:24.132Z,2.72
2022-12-20T22:26:50.749Z,2.75
2022-12-20T22:29:17.333Z,2.75
2022-12-20T22:31:44.046Z,2.73
2022-12-20T22:34:10.790Z,2.79
2022-12-20T22:36:37.543Z,2.81
2022-12-20T22:39:04.382Z,2.77
2022-12-20T22:41:34.897Z,2.70
2022-12-20T22:44:01.866Z,2.62
2022-12-20T22:46:31.842Z,2.74
2022-12-20T22:48:59.253Z,2.70
2022-12-20T22:51:27.875Z,2.69
2022-12-20T22:53:54.599Z,2.69
2022-12-20T22:56:21.830Z,2.70
2022-12-20T22:58:49.122Z,2.70
2022-12-20T23:01:19.415Z,2.75
2022-12-20T23:03:46.549Z,2.71
2022-12-20T23:06:17.034Z,2.71
2022-12-20T23:08:43.670Z,2.70
2022-12-20T23:11:36.469Z,2.71
2022-12-20T23:14:22.922Z,2.73
2022-12-20T23:16:50.007Z,2.59
2022-12-20T23:19:16.583Z,2.55
2022-12-20T23:22:01.797Z,2.59
2022-12-20T23:24:28.469Z,2.54
2022-12-20T23:26:54.960Z,2.58
2022-12-20T23:29:22.230Z,2.68
2022-12-20T23:31:48.993Z,2.59
2022-12-20T23:34:15.591Z,2.56
2022-12-20T23:36:42.170Z,2.58
2022-12-20T23:39:09.122Z,2.46
2022-12-20T23:41:35.673Z,2.57
2022-12-20T23:44:06.158Z,2.60
2022-12-20T23:46:33.791Z,2.58
2022-12-20T23:49:00.474Z,2.49
2022-12-20T23:51:27.034Z,2.43
2022-12-20T23:53:53.599Z,2.41
2022-12-20T23:56:21.949Z,2.37
2022-12-20T23:58:53.998Z,2.44
